sensor_id;sensor_type;location;lat;lon;timestamp;P1;durP1;ratioP1;P2;durP2;ratioP2
19691;SDS011;42748;50.016;19.890;2022-10-16T00:01:27;27.75;;;17.85;;
19691;SDS011;42748;50.016;19.890;2022-10-16T00:03:56;26.92;;;16.73;;
19691;SDS011;42748;50.016;19.890;2022-10-16T00:06:25;29.95;;;19.15;;
19691;SDS011;42748;50.016;19.890;2022-10-16T00:08:54;31.15;;;18.90;;
19691;SDS011;42748;50.016;19.890;2022-10-16T00:11:23;30.75;;;18.02;;
19691;SDS011;42748;50.016;19.890;2022-10-16T00:13:54;28.60;;;17.42;;
19691;SDS011;42748;50.016;19.890;2022-10-16T00:16:24;34.35;;;17.85;;
19691;SDS011;42748;50.016;19.890;2022-10-16T00:18:51;26.33;;;16.48;;
19691;SDS011;42748;50.016;19.890;2022-10-16T00:21:23;25.92;;;16.35;;
19691;SDS011;42748;50.016;19.890;2022-10-16T00:23:56;23.73;;;16.17;;
19691;SDS011;42748;50.016;19.890;2022-10-16T00:26:35;23.85;;;15.38;;
19691;SDS011;42748;50.016;19.890;2022-10-16T00:29:03;24.80;;;15.13;;
19691;SDS011;42748;50.016;19.890;2022-10-16T00:31:31;23.95;;;15.95;;
19691;SDS011;42748;50.016;19.890;2022-10-16T00:33:59;29.52;;;17.88;;
19691;SDS011;42748;50.016;19.890;2022-10-16T00:36:27;29.05;;;17.83;;
19691;SDS011;42748;50.016;19.890;2022-10-16T00:38:56;32.95;;;18.10;;
19691;SDS011;42748;50.016;19.890;2022-10-16T00:41:31;27.70;;;17.92;;
19691;SDS011;42748;50.016;19.890;2022-10-16T00:44:00;31.45;;;17.25;;
19691;SDS011;42748;50.016;19.890;2022-10-16T00:46:37;31.42;;;18.30;;
19691;SDS011;42748;50.016;19.890;2022-10-16T00:49:10;28.80;;;18.33;;
19691;SDS011;42748;50.016;19.890;2022-10-16T00:51:41;27.35;;;16.70;;
19691;SDS011;42748;50.016;19.890;2022-10-16T00:54:18;31.58;;;19.35;;
19691;SDS011;42748;50.016;19.890;2022-10-16T00:56:48;30.88;;;19.33;;
19691;SDS011;42748;50.016;19.890;2022-10-16T00:59:22;26.05;;;17.92;;
19691;SDS011;42748;50.016;19.890;2022-10-16T01:01:54;30.17;;;16.60;;
19691;SDS011;42748;50.016;19.890;2022-10-16T01:04:22;24.85;;;15.52;;
19691;SDS011;42748;50.016;19.890;2022-10-16T01:12:38;28.35;;;18.17;;
19691;SDS011;42748;50.016;19.890;2022-10-16T01:15:29;29.45;;;18.70;;
19691;SDS011;42748;50.016;19.890;2022-10-16T01:21:04;31.73;;;19.55;;
19691;SDS011;42748;50.016;19.890;2022-10-16T01:28:56;30.42;;;18.73;;
19691;SDS011;42748;50.016;19.890;2022-10-16T01:31:31;30.17;;;19.17;;
19691;SDS011;42748;50.016;19.890;2022-10-16T01:36:51;29.73;;;19.13;;
19691;SDS011;42748;50.016;19.890;2022-10-16T01:39:22;29.38;;;19.27;;
19691;SDS011;42748;50.016;19.890;2022-10-16T01:41:58;31.65;;;20.15;;
19691;SDS011;42748;50.016;19.890;2022-10-16T01:44:40;33.08;;;20.17;;
19691;SDS011;42748;50.016;19.890;2022-10-16T01:47:09;28.83;;;19.30;;
19691;SDS011;42748;50.016;19.890;2022-10-16T01:49:38;29.63;;;19.10;;
19691;SDS011;42748;50.016;19.890;2022-10-16T01:52:08;32.22;;;20.05;;
19691;SDS011;42748;50.016;19.890;2022-10-16T01:54:39;34.92;;;19.17;;
19691;SDS011;42748;50.016;19.890;2022-10-16T01:57:09;26.90;;;18.83;;
19691;SDS011;42748;50.016;19.890;2022-10-16T01:59:39;30.00;;;18.23;;
19691;SDS011;42748;50.016;19.890;2022-10-16T02:02:09;31.27;;;19.38;;
19691;SDS011;42748;50.016;19.890;2022-10-16T02:04:40;30.67;;;18.95;;
19691;SDS011;42748;50.016;19.890;2022-10-16T02:07:10;28.02;;;17.50;;
19691;SDS011;42748;50.016;19.890;2022-10-16T02:09:38;29.63;;;18.50;;
19691;SDS011;42748;50.016;19.890;2022-10-16T02:12:10;28.70;;;17.50;;
19691;SDS011;42748;50.016;19.890;2022-10-16T02:14:43;26.17;;;16.63;;
19691;SDS011;42748;50.016;19.890;2022-10-16T02:17:14;26.73;;;17.10;;
19691;SDS011;42748;50.016;19.890;2022-10-16T02:19:43;25.83;;;16.80;;
19691;SDS011;42748;50.016;19.890;2022-10-16T02:22:16;25.00;;;15.35;;
19691;SDS011;42748;50.016;19.890;2022-10-16T02:24:56;22.40;;;15.32;;
19691;SDS011;42748;50.016;19.890;2022-10-16T02:27:50;21.40;;;14.57;;
19691;SDS011;42748;50.016;19.890;2022-10-16T02:30:32;25.98;;;15.00;;
19691;SDS011;42748;50.016;19.890;2022-10-16T02:33:01;24.88;;;15.50;;
19691;SDS011;42748;50.016;19.890;2022-10-16T02:35:31;23.83;;;15.30;;
19691;SDS011;42748;50.016;19.890;2022-10-16T02:37:58;26.98;;;15.57;;
19691;SDS011;42748;50.016;19.890;2022-10-16T02:40:26;25.08;;;15.43;;
19691;SDS011;42748;50.016;19.890;2022-10-16T02:42:54;24.50;;;14.88;;
19691;SDS011;42748;50.016;19.890;2022-10-16T02:45:22;23.42;;;15.68;;
19691;SDS011;42748;50.016;19.890;2022-10-16T02:47:50;22.58;;;14.82;;
19691;SDS011;42748;50.016;19.890;2022-10-16T02:50:17;23.38;;;15.02;;
19691;SDS011;42748;50.016;19.890;2022-10-16T02:52:45;24.65;;;14.98;;
19691;SDS011;42748;50.016;19.890;2022-10-16T02:55:12;23.45;;;14.85;;
19691;SDS011;42748;50.016;19.890;2022-10-16T02:57:39;25.92;;;15.57;;
19691;SDS011;42748;50.016;19.890;2022-10-16T03:00:08;22.40;;;15.50;;
19691;SDS011;42748;50.016;19.890;2022-10-16T03:02:36;24.58;;;15.25;;
19691;SDS011;42748;50.016;19.890;2022-10-16T03:05:03;27.67;;;15.82;;
19691;SDS011;42748;50.016;19.890;2022-10-16T03:07:31;25.65;;;15.93;;
19691;SDS011;42748;50.016;19.890;2022-10-16T03:09:58;23.13;;;15.75;;
19691;SDS011;42748;50.016;19.890;2022-10-16T03:12:26;26.77;;;15.98;;
19691;SDS011;42748;50.016;19.890;2022-10-16T03:14:55;21.55;;;14.77;;
19691;SDS011;42748;50.016;19.890;2022-10-16T03:17:23;20.33;;;14.77;;
19691;SDS011;42748;50.016;19.890;2022-10-16T03:19:51;21.83;;;14.63;;
19691;SDS011;42748;50.016;19.890;2022-10-16T03:22:18;23.27;;;14.88;;
19691;SDS011;42748;50.016;19.890;2022-10-16T03:24:45;22.40;;;14.20;;
19691;SDS011;42748;50.016;19.890;2022-10-16T03:27:12;20.98;;;13.77;;
19691;SDS011;42748;50.016;19.890;2022-10-16T03:29:39;25.55;;;15.70;;
19691;SDS011;42748;50.016;19.890;2022-10-16T03:32:06;23.52;;;14.88;;
19691;SDS011;42748;50.016;19.890;2022-10-16T03:34:33;22.55;;;15.00;;
19691;SDS011;42748;50.016;19.890;2022-10-16T03:37:00;24.80;;;16.23;;
19691;SDS011;42748;50.016;19.890;2022-10-16T03:39:27;22.90;;;15.65;;
19691;SDS011;42748;50.016;19.890;2022-10-16T03:41:54;23.63;;;16.15;;
19691;SDS011;42748;50.016;19.890;2022-10-16T03:44:21;25.35;;;15.82;;
19691;SDS011;42748;50.016;19.890;2022-10-16T03:46:48;32.92;;;16.65;;
19691;SDS011;42748;50.016;19.890;2022-10-16T03:49:15;25.58;;;16.67;;
19691;SDS011;42748;50.016;19.890;2022-10-16T03:51:42;30.02;;;17.05;;
19691;SDS011;42748;50.016;19.890;2022-10-16T03:54:09;29.65;;;17.70;;
19691;SDS011;42748;50.016;19.890;2022-10-16T03:56:36;25.90;;;17.52;;
19691;SDS011;42748;50.016;19.890;2022-10-16T03:59:04;27.48;;;17.95;;
19691;SDS011;42748;50.016;19.890;2022-10-16T04:01:31;28.75;;;17.60;;
19691;SDS011;42748;50.016;19.890;2022-10-16T04:03:58;29.58;;;18.08;;
19691;SDS011;42748;50.016;19.890;2022-10-16T04:06:25;27.38;;;18.00;;
19691;SDS011;42748;50.016;19.890;2022-10-16T04:08:52;29.58;;;17.80;;
19691;SDS011;42748;50.016;19.890;2022-10-16T04:11:19;28.00;;;17.00;;
19691;SDS011;42748;50.016;19.890;2022-10-16T04:13:46;28.30;;;17.65;;
19691;SDS011;42748;50.016;19.890;2022-10-16T04:16:13;28.00;;;17.35;;
19691;SDS011;42748;50.016;19.890;2022-10-16T04:18:40;34.80;;;19.58;;
19691;SDS011;42748;50.016;19.890;2022-10-16T04:21:07;27.15;;;17.77;;
19691;SDS011;42748;50.016;19.890;2022-10-16T04:23:35;31.33;;;18.58;;
19691;SDS011;42748;50.016;19.890;2022-10-16T04:26:01;29.60;;;18.40;;
19691;SDS011;42748;50.016;19.890;2022-10-16T04:28:29;28.75;;;18.27;;
19691;SDS011;42748;50.016;19.890;2022-10-16T04:30:56;28.05;;;17.35;;
19691;SDS011;42748;50.016;19.890;2022-10-16T04:33:24;24.75;;;16.70;;
19691;SDS011;42748;50.016;19.890;2022-10-16T04:35:58;26.52;;;16.75;;
19691;SDS011;42748;50.016;19.890;2022-10-16T04:38:26;24.38;;;15.95;;
19691;SDS011;42748;50.016;19.890;2022-10-16T04:40:53;27.25;;;15.38;;
19691;SDS011;42748;50.016;19.890;2022-10-16T04:43:20;21.52;;;14.80;;
19691;SDS011;42748;50.016;19.890;2022-10-16T04:45:47;23.52;;;15.48;;
19691;SDS011;42748;50.016;19.890;2022-10-16T04:48:17;25.33;;;15.82;;
19691;SDS011;42748;50.016;19.890;2022-10-16T04:50:44;26.73;;;16.85;;
19691;SDS011;42748;50.016;19.890;2022-10-16T04:53:19;23.55;;;15.70;;
19691;SDS011;42748;50.016;19.890;2022-10-16T04:55:46;25.15;;;16.13;;
19691;SDS011;42748;50.016;19.890;2022-10-16T04:58:13;24.67;;;15.52;;
19691;SDS011;42748;50.016;19.890;2022-10-16T05:00:40;24.65;;;15.77;;
19691;SDS011;42748;50.016;19.890;2022-10-16T05:03:07;23.30;;;16.00;;
19691;SDS011;42748;50.016;19.890;2022-10-16T05:05:36;26.35;;;16.65;;
19691;SDS011;42748;50.016;19.890;2022-10-16T05:08:03;25.90;;;16.60;;
19691;SDS011;42748;50.016;19.890;2022-10-16T05:10:30;22.73;;;15.48;;
19691;SDS011;42748;50.016;19.890;2022-10-16T05:12:57;24.83;;;16.23;;
19691;SDS011;42748;50.016;19.890;2022-10-16T05:15:24;28.70;;;16.33;;
19691;SDS011;42748;50.016;19.890;2022-10-16T05:17:52;24.35;;;16.08;;
19691;SDS011;42748;50.016;19.890;2022-10-16T05:20:20;21.90;;;15.18;;
19691;SDS011;42748;50.016;19.890;2022-10-16T05:22:48;22.00;;;15.00;;
19691;SDS011;42748;50.016;19.890;2022-10-16T05:25:15;23.95;;;15.85;;
19691;SDS011;42748;50.016;19.890;2022-10-16T05:27:43;22.75;;;15.63;;
19691;SDS011;42748;50.016;19.890;2022-10-16T05:30:13;26.77;;;16.00;;
19691;SDS011;42748;50.016;19.890;2022-10-16T05:32:40;26.92;;;16.40;;
19691;SDS011;42748;50.016;19.890;2022-10-16T05:35:07;28.85;;;17.00;;
19691;SDS011;42748;50.016;19.890;2022-10-16T05:37:38;25.42;;;16.45;;
19691;SDS011;42748;50.016;19.890;2022-10-16T05:40:05;27.58;;;16.60;;
19691;SDS011;42748;50.016;19.890;2022-10-16T05:42:32;28.83;;;15.65;;
19691;SDS011;42748;50.016;19.890;2022-10-16T05:44:59;22.73;;;14.07;;
19691;SDS011;42748;50.016;19.890;2022-10-16T05:47:27;18.95;;;13.75;;
19691;SDS011;42748;50.016;19.890;2022-10-16T05:49:54;18.80;;;12.68;;
19691;SDS011;42748;50.016;19.890;2022-10-16T05:52:22;20.70;;;13.05;;
19691;SDS011;42748;50.016;19.890;2022-10-16T05:54:49;18.50;;;12.70;;
19691;SDS011;42748;50.016;19.890;2022-10-16T05:57:16;23.52;;;13.80;;
19691;SDS011;42748;50.016;19.890;2022-10-16T05:59:43;22.45;;;14.68;;
19691;SDS011;42748;50.016;19.890;2022-10-16T06:02:14;26.52;;;14.38;;
19691;SDS011;42748;50.016;19.890;2022-10-16T06:04:41;23.45;;;15.10;;
19691;SDS011;42748;50.016;19.890;2022-10-16T06:07:08;21.10;;;13.55;;
19691;SDS011;42748;50.016;19.890;2022-10-16T06:09:35;24.08;;;14.52;;
19691;SDS011;42748;50.016;19.890;2022-10-16T06:12:02;22.83;;;13.80;;
19691;SDS011;42748;50.016;19.890;2022-10-16T06:14:29;23.50;;;14.48;;
19691;SDS011;42748;50.016;19.890;2022-10-16T06:16:57;23.05;;;15.35;;
19691;SDS011;42748;50.016;19.890;2022-10-16T06:19:24;20.83;;;15.00;;
19691;SDS011;42748;50.016;19.890;2022-10-16T06:21:51;24.35;;;15.75;;
19691;SDS011;42748;50.016;19.890;2022-10-16T06:24:18;27.17;;;15.43;;
19691;SDS011;42748;50.016;19.890;2022-10-16T06:26:45;26.83;;;16.15;;
19691;SDS011;42748;50.016;19.890;2022-10-16T06:29:12;24.77;;;15.50;;
19691;SDS011;42748;50.016;19.890;2022-10-16T06:31:39;27.13;;;15.68;;
19691;SDS011;42748;50.016;19.890;2022-10-16T06:34:08;26.33;;;16.10;;
19691;SDS011;42748;50.016;19.890;2022-10-16T06:36:38;27.48;;;16.70;;
19691;SDS011;42748;50.016;19.890;2022-10-16T06:39:05;26.30;;;15.25;;
19691;SDS011;42748;50.016;19.890;2022-10-16T06:41:33;29.42;;;16.65;;
19691;SDS011;42748;50.016;19.890;2022-10-16T06:44:13;26.75;;;15.40;;
19691;SDS011;42748;50.016;19.890;2022-10-16T06:46:41;24.98;;;15.60;;
19691;SDS011;42748;50.016;19.890;2022-10-16T06:49:09;22.98;;;15.98;;
19691;SDS011;42748;50.016;19.890;2022-10-16T06:51:36;23.45;;;16.05;;
19691;SDS011;42748;50.016;19.890;2022-10-16T06:54:09;25.63;;;15.98;;
19691;SDS011;42748;50.016;19.890;2022-10-16T06:56:36;26.02;;;16.20;;
19691;SDS011;42748;50.016;19.890;2022-10-16T06:59:04;23.70;;;16.75;;
19691;SDS011;42748;50.016;19.890;2022-10-16T07:01:31;30.10;;;17.50;;
19691;SDS011;42748;50.016;19.890;2022-10-16T07:03:59;33.28;;;17.58;;
19691;SDS011;42748;50.016;19.890;2022-10-16T07:06:30;28.20;;;18.42;;
19691;SDS011;42748;50.016;19.890;2022-10-16T07:09:00;33.58;;;18.92;;
19691;SDS011;42748;50.016;19.890;2022-10-16T07:11:29;29.38;;;19.05;;
19691;SDS011;42748;50.016;19.890;2022-10-16T07:13:57;33.92;;;19.33;;
19691;SDS011;42748;50.016;19.890;2022-10-16T07:16:25;30.98;;;19.08;;
19691;SDS011;42748;50.016;19.890;2022-10-16T07:18:55;28.27;;;18.55;;
19691;SDS011;42748;50.016;19.890;2022-10-16T07:21:28;28.75;;;18.55;;
19691;SDS011;42748;50.016;19.890;2022-10-16T07:23:58;29.20;;;18.08;;
19691;SDS011;42748;50.016;19.890;2022-10-16T07:26:29;30.75;;;18.42;;
19691;SDS011;42748;50.016;19.890;2022-10-16T07:28:57;29.67;;;18.48;;
19691;SDS011;42748;50.016;19.890;2022-10-16T07:31:25;32.70;;;18.85;;
19691;SDS011;42748;50.016;19.890;2022-10-16T07:33:57;27.77;;;17.63;;
19691;SDS011;42748;50.016;19.890;2022-10-16T07:36:25;29.85;;;18.40;;
19691;SDS011;42748;50.016;19.890;2022-10-16T07:38:53;25.10;;;18.48;;
19691;SDS011;42748;50.016;19.890;2022-10-16T07:41:26;29.15;;;18.08;;
19691;SDS011;42748;50.016;19.890;2022-10-16T07:43:53;28.70;;;18.17;;
19691;SDS011;42748;50.016;19.890;2022-10-16T07:46:22;29.08;;;17.90;;
19691;SDS011;42748;50.016;19.890;2022-10-16T07:48:50;27.65;;;17.77;;
19691;SDS011;42748;50.016;19.890;2022-10-16T07:51:19;25.48;;;17.25;;
19691;SDS011;42748;50.016;19.890;2022-10-16T07:53:47;30.60;;;17.45;;
19691;SDS011;42748;50.016;19.890;2022-10-16T07:56:16;24.00;;;16.27;;
19691;SDS011;42748;50.016;19.890;2022-10-16T07:58:43;26.17;;;16.88;;
19691;SDS011;42748;50.016;19.890;2022-10-16T08:01:12;26.42;;;17.08;;
19691;SDS011;42748;50.016;19.890;2022-10-16T08:03:42;26.80;;;17.15;;
19691;SDS011;42748;50.016;19.890;2022-10-16T08:06:17;27.25;;;16.05;;
19691;SDS011;42748;50.016;19.890;2022-10-16T08:08:50;25.00;;;16.40;;
19691;SDS011;42748;50.016;19.890;2022-10-16T08:11:17;24.65;;;16.30;;
19691;SDS011;42748;50.016;19.890;2022-10-16T08:13:45;28.77;;;16.10;;
19691;SDS011;42748;50.016;19.890;2022-10-16T08:16:12;25.75;;;15.35;;
19691;SDS011;42748;50.016;19.890;2022-10-16T08:18:39;23.55;;;15.15;;
19691;SDS011;42748;50.016;19.890;2022-10-16T08:21:11;22.70;;;15.55;;
19691;SDS011;42748;50.016;19.890;2022-10-16T08:23:46;22.33;;;16.35;;
19691;SDS011;42748;50.016;19.890;2022-10-16T08:26:20;21.80;;;14.30;;
19691;SDS011;42748;50.016;19.890;2022-10-16T08:28:49;27.30;;;14.90;;
19691;SDS011;42748;50.016;19.890;2022-10-16T08:31:18;21.38;;;13.70;;
19691;SDS011;42748;50.016;19.890;2022-10-16T08:33:45;40.92;;;23.38;;
19691;SDS011;42748;50.016;19.890;2022-10-16T08:36:14;30.20;;;18.13;;
19691;SDS011;42748;50.016;19.890;2022-10-16T08:38:42;19.65;;;13.20;;
19691;SDS011;42748;50.016;19.890;2022-10-16T08:46:49;18.92;;;11.70;;
19691;SDS011;42748;50.016;19.890;2022-10-16T08:49:19;19.48;;;13.13;;
19691;SDS011;42748;50.016;19.890;2022-10-16T08:51:47;18.27;;;12.70;;
19691;SDS011;42748;50.016;19.890;2022-10-16T08:54:21;17.17;;;11.63;;
19691;SDS011;42748;50.016;19.890;2022-10-16T08:57:16;16.92;;;10.93;;
19691;SDS011;42748;50.016;19.890;2022-10-16T08:59:50;15.65;;;11.20;;
19691;SDS011;42748;50.016;19.890;2022-10-16T09:21:45;15.68;;;10.60;;
19691;SDS011;42748;50.016;19.890;2022-10-16T09:24:16;16.80;;;10.93;;
19691;SDS011;42748;50.016;19.890;2022-10-16T09:26:51;17.67;;;11.88;;
19691;SDS011;42748;50.016;19.890;2022-10-16T09:29:19;19.10;;;11.85;;
19691;SDS011;42748;50.016;19.890;2022-10-16T09:31:52;14.90;;;11.13;;
19691;SDS011;42748;50.016;19.890;2022-10-16T09:34:24;15.98;;;11.20;;
19691;SDS011;42748;50.016;19.890;2022-10-16T09:37:03;16.27;;;10.80;;
19691;SDS011;42748;50.016;19.890;2022-10-16T09:39:48;14.48;;;10.82;;
19691;SDS011;42748;50.016;19.890;2022-10-16T09:42:18;17.15;;;10.93;;
19691;SDS011;42748;50.016;19.890;2022-10-16T09:44:49;16.23;;;10.73;;
19691;SDS011;42748;50.016;19.890;2022-10-16T09:47:21;14.88;;;10.02;;
19691;SDS011;42748;50.016;19.890;2022-10-16T09:49:56;14.40;;;9.88;;
19691;SDS011;42748;50.016;19.890;2022-10-16T09:52:28;18.17;;;10.40;;
19691;SDS011;42748;50.016;19.890;2022-10-16T09:54:57;15.40;;;10.77;;
19691;SDS011;42748;50.016;19.890;2022-10-16T09:57:26;16.52;;;10.73;;
19691;SDS011;42748;50.016;19.890;2022-10-16T09:59:54;15.35;;;10.40;;
19691;SDS011;42748;50.016;19.890;2022-10-16T10:02:30;18.48;;;10.50;;
19691;SDS011;42748;50.016;19.890;2022-10-16T10:05:02;14.50;;;10.50;;
19691;SDS011;42748;50.016;19.890;2022-10-16T10:07:35;18.52;;;10.13;;
19691;SDS011;42748;50.016;19.890;2022-10-16T10:10:25;15.50;;;10.63;;
19691;SDS011;42748;50.016;19.890;2022-10-16T10:12:54;13.40;;;10.20;;
19691;SDS011;42748;50.016;19.890;2022-10-16T10:15:22;13.35;;;10.20;;
19691;SDS011;42748;50.016;19.890;2022-10-16T10:17:54;17.85;;;10.13;;
19691;SDS011;42748;50.016;19.890;2022-10-16T10:20:33;14.02;;;9.35;;
19691;SDS011;42748;50.016;19.890;2022-10-16T10:23:21;16.33;;;9.75;;
19691;SDS011;42748;50.016;19.890;2022-10-16T10:36:57;13.63;;;8.50;;
19691;SDS011;42748;50.016;19.890;2022-10-16T10:39:36;13.10;;;8.90;;
19691;SDS011;42748;50.016;19.890;2022-10-16T10:42:28;13.32;;;9.45;;
19691;SDS011;42748;50.016;19.890;2022-10-16T10:45:15;13.32;;;8.35;;
19691;SDS011;42748;50.016;19.890;2022-10-16T10:47:56;11.07;;;8.70;;
19691;SDS011;42748;50.016;19.890;2022-10-16T11:07:37;12.85;;;8.20;;
19691;SDS011;42748;50.016;19.890;2022-10-16T11:10:15;12.80;;;8.75;;
19691;SDS011;42748;50.016;19.890;2022-10-16T11:12:54;10.02;;;7.65;;
19691;SDS011;42748;50.016;19.890;2022-10-16T11:15:35;12.20;;;8.65;;
19691;SDS011;42748;50.016;19.890;2022-10-16T11:18:07;11.65;;;8.07;;
19691;SDS011;42748;50.016;19.890;2022-10-16T11:20:51;11.20;;;8.40;;
19691;SDS011;42748;50.016;19.890;2022-10-16T11:23:35;11.65;;;8.90;;
19691;SDS011;42748;50.016;19.890;2022-10-16T11:26:16;14.25;;;8.60;;
19691;SDS011;42748;50.016;19.890;2022-10-16T11:28:50;12.88;;;9.13;;
19691;SDS011;42748;50.016;19.890;2022-10-16T11:36:53;12.30;;;8.10;;
19691;SDS011;42748;50.016;19.890;2022-10-16T11:39:31;10.50;;;7.78;;
19691;SDS011;42748;50.016;19.890;2022-10-16T11:55:54;10.82;;;7.28;;
19691;SDS011;42748;50.016;19.890;2022-10-16T11:58:32;10.68;;;7.15;;
19691;SDS011;42748;50.016;19.890;2022-10-16T12:06:34;12.68;;;7.57;;
19691;SDS011;42748;50.016;19.890;2022-10-16T12:09:28;10.15;;;7.47;;
19691;SDS011;42748;50.016;19.890;2022-10-16T12:11:58;11.07;;;7.28;;
19691;SDS011;42748;50.016;19.890;2022-10-16T12:14:33;10.30;;;7.30;;
19691;SDS011;42748;50.016;19.890;2022-10-16T12:17:36;10.55;;;6.97;;
19691;SDS011;42748;50.016;19.890;2022-10-16T12:22:50;11.25;;;6.80;;
19691;SDS011;42748;50.016;19.890;2022-10-16T12:25:23;10.30;;;7.13;;
19691;SDS011;42748;50.016;19.890;2022-10-16T12:28:02;11.13;;;7.55;;
19691;SDS011;42748;50.016;19.890;2022-10-16T12:30:43;11.90;;;7.60;;
19691;SDS011;42748;50.016;19.890;2022-10-16T12:35:54;9.85;;;7.22;;
19691;SDS011;42748;50.016;19.890;2022-10-16T12:38:27;13.80;;;7.18;;
19691;SDS011;42748;50.016;19.890;2022-10-16T12:41:05;13.15;;;7.60;;
19691;SDS011;42748;50.016;19.890;2022-10-16T12:43:39;10.95;;;7.10;;
19691;SDS011;42748;50.016;19.890;2022-10-16T12:48:39;9.20;;;6.13;;
19691;SDS011;42748;50.016;19.890;2022-10-16T12:54:09;10.38;;;6.18;;
19691;SDS011;42748;50.016;19.890;2022-10-16T12:56:46;8.63;;;6.20;;
19691;SDS011;42748;50.016;19.890;2022-10-16T13:07:58;10.27;;;6.03;;
19691;SDS011;42748;50.016;19.890;2022-10-16T13:16:23;9.60;;;6.22;;
19691;SDS011;42748;50.016;19.890;2022-10-16T13:27:10;12.88;;;6.13;;
19691;SDS011;42748;50.016;19.890;2022-10-16T13:29:59;8.73;;;5.95;;
19691;SDS011;42748;50.016;19.890;2022-10-16T13:32:30;10.95;;;5.88;;
19691;SDS011;42748;50.016;19.890;2022-10-16T13:34:57;9.15;;;5.82;;
19691;SDS011;42748;50.016;19.890;2022-10-16T13:37:26;10.40;;;6.35;;
19691;SDS011;42748;50.016;19.890;2022-10-16T13:42:50;8.50;;;6.00;;
19691;SDS011;42748;50.016;19.890;2022-10-16T13:45:20;8.70;;;6.10;;
19691;SDS011;42748;50.016;19.890;2022-10-16T13:47:49;10.48;;;6.40;;
19691;SDS011;42748;50.016;19.890;2022-10-16T13:50:17;10.85;;;6.47;;
19691;SDS011;42748;50.016;19.890;2022-10-16T13:52:45;8.40;;;6.15;;
19691;SDS011;42748;50.016;19.890;2022-10-16T13:55:16;9.45;;;6.07;;
19691;SDS011;42748;50.016;19.890;2022-10-16T13:57:44;10.32;;;6.40;;
19691;SDS011;42748;50.016;19.890;2022-10-16T14:00:18;7.97;;;5.80;;
19691;SDS011;42748;50.016;19.890;2022-10-16T14:02:49;10.77;;;6.13;;
19691;SDS011;42748;50.016;19.890;2022-10-16T14:05:19;9.98;;;6.07;;
19691;SDS011;42748;50.016;19.890;2022-10-16T14:07:48;12.00;;;6.93;;
19691;SDS011;42748;50.016;19.890;2022-10-16T14:10:24;13.20;;;6.32;;
19691;SDS011;42748;50.016;19.890;2022-10-16T14:13:03;9.40;;;6.18;;
19691;SDS011;42748;50.016;19.890;2022-10-16T14:15:33;10.65;;;6.50;;
19691;SDS011;42748;50.016;19.890;2022-10-16T14:18:02;11.68;;;6.40;;
19691;SDS011;42748;50.016;19.890;2022-10-16T14:20:31;10.05;;;6.40;;
19691;SDS011;42748;50.016;19.890;2022-10-16T14:23:22;9.65;;;5.93;;
19691;SDS011;42748;50.016;19.890;2022-10-16T14:26:18;10.35;;;6.10;;
19691;SDS011;42748;50.016;19.890;2022-10-16T14:28:48;13.07;;;6.57;;
19691;SDS011;42748;50.016;19.890;2022-10-16T14:31:31;11.43;;;6.40;;
19691;SDS011;42748;50.016;19.890;2022-10-16T14:34:00;9.70;;;6.43;;
19691;SDS011;42748;50.016;19.890;2022-10-16T14:36:27;10.52;;;6.47;;
19691;SDS011;42748;50.016;19.890;2022-10-16T14:39:05;10.02;;;6.00;;
19691;SDS011;42748;50.016;19.890;2022-10-16T14:41:46;12.30;;;6.38;;
19691;SDS011;42748;50.016;19.890;2022-10-16T14:44:17;11.15;;;7.00;;
19691;SDS011;42748;50.016;19.890;2022-10-16T14:46:45;11.52;;;6.68;;
19691;SDS011;42748;50.016;19.890;2022-10-16T14:49:15;9.00;;;6.35;;
19691;SDS011;42748;50.016;19.890;2022-10-16T14:51:46;8.90;;;6.18;;
19691;SDS011;42748;50.016;19.890;2022-10-16T14:54:17;9.52;;;6.75;;
19691;SDS011;42748;50.016;19.890;2022-10-16T14:56:50;10.35;;;6.45;;
19691;SDS011;42748;50.016;19.890;2022-10-16T15:02:34;9.05;;;6.30;;
19691;SDS011;42748;50.016;19.890;2022-10-16T15:05:14;10.15;;;5.95;;
19691;SDS011;42748;50.016;19.890;2022-10-16T15:07:46;12.38;;;6.65;;
19691;SDS011;42748;50.016;19.890;2022-10-16T15:10:17;8.68;;;6.25;;
19691;SDS011;42748;50.016;19.890;2022-10-16T15:12:47;9.02;;;5.88;;
19691;SDS011;42748;50.016;19.890;2022-10-16T15:17:58;8.65;;;6.20;;
19691;SDS011;42748;50.016;19.890;2022-10-16T15:20:30;15.43;;;6.70;;
19691;SDS011;42748;50.016;19.890;2022-10-16T15:23:06;11.13;;;6.40;;
19691;SDS011;42748;50.016;19.890;2022-10-16T15:25:45;9.27;;;6.80;;
19691;SDS011;42748;50.016;19.890;2022-10-16T15:28:14;10.27;;;6.80;;
19691;SDS011;42748;50.016;19.890;2022-10-16T15:30:46;10.30;;;6.68;;
19691;SDS011;42748;50.016;19.890;2022-10-16T15:33:17;14.68;;;6.90;;
19691;SDS011;42748;50.016;19.890;2022-10-16T15:35:46;12.80;;;7.82;;
19691;SDS011;42748;50.016;19.890;2022-10-16T15:38:17;11.75;;;7.43;;
19691;SDS011;42748;50.016;19.890;2022-10-16T15:40:50;11.68;;;7.20;;
19691;SDS011;42748;50.016;19.890;2022-10-16T15:43:17;12.57;;;8.00;;
19691;SDS011;42748;50.016;19.890;2022-10-16T15:45:54;17.35;;;8.05;;
19691;SDS011;42748;50.016;19.890;2022-10-16T15:48:29;10.93;;;7.63;;
19691;SDS011;42748;50.016;19.890;2022-10-16T15:50:56;12.48;;;8.13;;
19691;SDS011;42748;50.016;19.890;2022-10-16T15:53:23;14.90;;;8.45;;
19691;SDS011;42748;50.016;19.890;2022-10-16T15:55:51;11.38;;;7.88;;
19691;SDS011;42748;50.016;19.890;2022-10-16T15:58:23;18.90;;;8.32;;
19691;SDS011;42748;50.016;19.890;2022-10-16T16:00:54;13.93;;;7.93;;
19691;SDS011;42748;50.016;19.890;2022-10-16T16:03:22;13.88;;;8.63;;
19691;SDS011;42748;50.016;19.890;2022-10-16T16:05:51;17.33;;;8.73;;
19691;SDS011;42748;50.016;19.890;2022-10-16T16:08:19;12.65;;;8.20;;
19691;SDS011;42748;50.016;19.890;2022-10-16T16:10:59;19.30;;;8.90;;
19691;SDS011;42748;50.016;19.890;2022-10-16T16:13:28;13.35;;;8.52;;
19691;SDS011;42748;50.016;19.890;2022-10-16T16:15:55;13.82;;;8.63;;
19691;SDS011;42748;50.016;19.890;2022-10-16T16:18:22;14.45;;;8.80;;
19691;SDS011;42748;50.016;19.890;2022-10-16T16:20:50;15.43;;;8.25;;
19691;SDS011;42748;50.016;19.890;2022-10-16T16:23:18;17.80;;;8.85;;
19691;SDS011;42748;50.016;19.890;2022-10-16T16:26:01;14.80;;;8.15;;
19691;SDS011;42748;50.016;19.890;2022-10-16T16:28:29;20.98;;;9.05;;
19691;SDS011;42748;50.016;19.890;2022-10-16T16:30:57;14.13;;;8.70;;
19691;SDS011;42748;50.016;19.890;2022-10-16T16:33:24;15.00;;;9.40;;
19691;SDS011;42748;50.016;19.890;2022-10-16T16:35:55;16.10;;;8.82;;
19691;SDS011;42748;50.016;19.890;2022-10-16T16:38:27;14.98;;;8.55;;
19691;SDS011;42748;50.016;19.890;2022-10-16T16:40:55;15.65;;;8.85;;
19691;SDS011;42748;50.016;19.890;2022-10-16T16:43:23;14.05;;;8.63;;
19691;SDS011;42748;50.016;19.890;2022-10-16T16:45:52;16.08;;;8.93;;
19691;SDS011;42748;50.016;19.890;2022-10-16T16:48:19;15.48;;;8.80;;
19691;SDS011;42748;50.016;19.890;2022-10-16T16:50:46;17.83;;;10.07;;
19691;SDS011;42748;50.016;19.890;2022-10-16T16:53:13;15.23;;;9.63;;